This is the latest recevied weather packets stored in our database for station/object SP2CDN-10. If no packets are shown the sender has not sent any weather packets the latest 10 day(s).
| Time | Temp. | Humidity | Pressure | Rain* | Wind** | Luminosity | Snow |
|---|---|---|---|---|---|---|---|
| 1777453616 | 9.44° C | 32% | 1028.2 hPa | - | - | - | - |
| 1777451334 | 8.33° C | 33% | 1028.3 hPa | - | - | - | - |
| 1777449052 | 10° C | 30% | 1027.9 hPa | - | - | - | - |
| 1777446770 | 8.33° C | 35% | 1027.9 hPa | - | - | - | - |
| 1777444489 | 6.67° C | 42% | 1028.1 hPa | - | - | - | - |
| 1777442207 | 5° C | 50% | 1027.9 hPa | - | - | - | - |
| 1777439926 | 2.22° C | 68% | 1027.5 hPa | - | - | - | - |
| 1777437644 | 0° C | 89% | 1027.5 hPa | - | - | - | - |
| 1777435362 | -1.11° C | 97% | 1027.1 hPa | - | - | - | - |
| 1777433080 | -1.67° C | 97% | 1027 hPa | - | - | - | - |
| 1777430799 | -1.11° C | 94% | 1026.8 hPa | - | - | - | - |
| 1777429426 | -1.11° C | 93% | 1026.7 hPa | - | - | - | - |
| 1777427145 | -1.11° C | 88% | 1026.8 hPa | - | - | - | - |
| 1777424863 | -1.11° C | 83% | 1026.6 hPa | - | - | - | - |
| 1777422582 | -0.56° C | 79% | 1026.7 hPa | - | - | - | - |
| 1777420301 | 0° C | 67% | 1026.7 hPa | - | - | - | - |
| 1777418019 | 0.56° C | 59% | 1026.6 hPa | - | - | - | - |
| 1777415737 | 0.56° C | 57% | 1026.3 hPa | - | - | - | - |
| 1777413456 | 1.11° C | 50% | 1026.1 hPa | - | - | - | - |
| 1777411174 | 1.67° C | 47% | 1025.8 hPa | - | - | - | - |
| 1777408893 | 2.78° C | 45% | 1025.6 hPa | - | - | - | - |
| 1777406611 | 3.89° C | 42% | 1025.2 hPa | - | - | - | - |
| 1777404329 | 5° C | 42% | 1025 hPa | - | - | - | - |
| 1777402048 | 6.11° C | 40% | 1024.7 hPa | - | - | - | - |
| 1777399766 | 7.78° C | 38% | 1024.4 hPa | - | - | - | - |
* Rain since midnight (hover to see other rain measurements)
** Current wind speed in m/s (hover to see current wind gust speed)